Time;durP1;ratioP1;P1;durP2;ratioP2;P2;SDS_P1;SDS_P2;PMS_P1;PMS_P2;Temp;Humidity;BMP_temperature;BMP_pressure;BME280_temperature;BME280_humidity;BME280_pressure;Samples;Min_cycle;Max_cycle;Signal;HPM_P1;HPM_P2
2023/04/26 00:00:32;;;;;;;;;;;;;;;10.03;67.62;101532.13;7351368;19;20352;-63
2023/04/26 00:02:59;;;;;;;;;;;;;;;10.02;68.21;101540.13;7357827;19;20438;-64
2023/04/26 00:05:27;;;;;;;;;;;;;;;10.00;67.75;101535.03;7353955;19;20253;-63
2023/04/26 00:07:54;;;;;;;;;;;;;;;10.01;68.37;101541.94;7354292;19;19929;-63
2023/04/26 00:10:21;;;;;;;;;;;;;;;9.99;68.72;101535.16;7354325;19;19914;-63
2023/04/26 00:12:48;;;;;;;;;;;;;;;9.97;67.97;101523.94;7358094;19;20333;-64
2023/04/26 00:15:15;;;;;;;;;;;;;;;9.94;68.88;101513.69;7349905;19;19929;-63
2023/04/26 00:17:42;;;;;;;;;;;;;;;9.92;68.90;101513.81;7352712;19;19923;-64
2023/04/26 00:20:10;;;;;;;;;;;;;;;9.92;69.65;101523.50;7356926;19;19978;-63
2023/04/26 00:22:38;;;;;;;;;;;;;;;9.92;71.28;101523.50;7356041;19;19919;-64
2023/04/26 00:25:05;;;;;;;;;;;;;;;9.85;69.87;101505.63;7357237;19;20337;-64
2023/04/26 00:27:32;;;;;;;;;;;;;;;9.82;70.28;101497.16;7357190;19;19914;-64
2023/04/26 00:29:59;;;;;;;;;;;;;;;9.78;69.99;101490.50;7352212;19;20692;-63
2023/04/26 00:32:26;;;;;;;;;;;;;;;9.72;69.39;101483.16;7358838;19;20509;-65
2023/04/26 00:34:53;;;;;;;;;;;;;;;9.69;69.65;101483.44;7353597;19;19986;-64
2023/04/26 00:37:20;;;;;;;;;;;;;;;9.69;69.87;101475.53;7350709;19;19958;-65
2023/04/26 00:39:47;;;;;;;;;;;;;;;9.64;68.88;101489.06;7351921;19;19919;-63
2023/04/26 00:42:14;;;;;;;;;;;;;;;9.63;69.85;101489.19;7352685;19;20373;-64
2023/04/26 00:44:41;;;;;;;;;;;;;;;9.60;70.21;101494.72;7345031;19;19935;-64
2023/04/26 00:47:08;;;;;;;;;;;;;;;9.56;69.90;101490.66;7354892;19;19918;-64
2023/04/26 00:49:35;;;;;;;;;;;;;;;9.55;70.38;101486.41;7353680;19;19919;-63
2023/04/26 00:52:02;;;;;;;;;;;;;;;9.53;70.25;101483.88;7356230;19;19930;-65
2023/04/26 00:54:29;;;;;;;;;;;;;;;9.51;70.06;101482.34;7352367;19;19915;-67
2023/04/26 00:57:00;;;;;;;;;;;;;;;9.51;71.08;101488.44;7353064;19;20353;-63
2023/04/26 00:59:27;;;;;;;;;;;;;;;9.50;70.08;101488.59;7350119;19;20420;-63
2023/04/26 01:01:54;;;;;;;;;;;;;;;9.50;69.52;101481.50;7353810;19;19915;-63
2023/04/26 01:04:25;;;;;;;;;;;;;;;9.46;69.62;101480.09;7352125;19;19925;-64
2023/04/26 01:06:52;;;;;;;;;;;;;;;9.47;71.54;101489.66;7351906;19;19965;-64
2023/04/26 01:09:19;;;;;;;;;;;;;;;9.48;72.26;101493.13;7352699;19;21314;-63
2023/04/26 01:11:47;;;;;;;;;;;;;;;9.49;71.64;101489.53;7354873;19;19926;-66
2023/04/26 01:14:14;;;;;;;;;;;;;;;9.47;71.00;101479.16;7350403;19;20404;-64
2023/04/26 01:16:41;;;;;;;;;;;;;;;9.48;71.34;101482.59;7353955;19;20245;-64
2023/04/26 01:19:11;;;;;;;;;;;;;;;9.47;70.99;101483.56;7354345;19;20297;-64
2023/04/26 01:21:38;;;;;;;;;;;;;;;9.50;71.91;101473.63;7354391;19;19933;-63
2023/04/26 01:24:06;;;;;;;;;;;;;;;9.44;70.64;101474.16;7352201;19;19933;-63
2023/04/26 01:26:33;;;;;;;;;;;;;;;9.42;70.47;101470.81;7351412;19;19925;-64
2023/04/26 01:29:00;;;;;;;;;;;;;;;9.43;72.09;101459.38;7351478;19;19923;-63
2023/04/26 01:31:27;;;;;;;;;;;;;;;9.44;72.09;101464.50;7352343;19;19926;-64
2023/04/26 01:33:54;;;;;;;;;;;;;;;9.44;71.99;101461.03;7351417;19;19918;-63
2023/04/26 01:36:21;;;;;;;;;;;;;;;9.41;71.03;101451.59;7347902;19;19919;-64
2023/04/26 01:38:48;;;;;;;;;;;;;;;9.38;71.46;101451.03;7353185;19;20588;-64
2023/04/26 01:41:16;;;;;;;;;;;;;;;9.36;70.77;101455.56;7350865;19;20313;-63
2023/04/26 01:43:42;;;;;;;;;;;;;;;9.37;71.45;101452.00;7349505;19;19923;-64
2023/04/26 01:46:10;;;;;;;;;;;;;;;9.35;71.14;101449.50;7343160;19;19933;-63
2023/04/26 01:48:37;;;;;;;;;;;;;;;9.36;71.70;101448.53;7350567;19;19923;-65
2023/04/26 01:51:04;;;;;;;;;;;;;;;9.35;70.96;101441.63;7350622;19;19960;-64
2023/04/26 01:53:31;;;;;;;;;;;;;;;9.34;70.29;101441.75;7349115;19;19925;-64
2023/04/26 01:56:00;;;;;;;;;;;;;;;9.35;70.89;101443.41;7347665;19;20245;-64
2023/04/26 01:58:27;;;;;;;;;;;;;;;9.33;70.66;101445.34;7359906;19;19991;-64
2023/04/26 02:00:55;;;;;;;;;;;;;;;9.30;69.27;101449.03;7355907;19;20735;-64
2023/04/26 02:03:22;;;;;;;;;;;;;;;9.33;69.78;101447.97;7358179;19;19930;-63
2023/04/26 02:05:49;;;;;;;;;;;;;;;9.32;71.54;101441.88;7356822;19;20006;-63
2023/04/26 02:08:16;;;;;;;;;;;;;;;9.30;69.63;101446.41;7357577;19;19915;-64
2023/04/26 02:10:43;;;;;;;;;;;;;;;9.30;69.75;101448.22;7356741;19;19963;-63
2023/04/26 02:13:12;;;;;;;;;;;;;;;9.24;69.77;101443.50;7363944;19;19923;-63
2023/04/26 02:15:39;;;;;;;;;;;;;;;9.25;69.05;101442.50;7352688;19;20284;-64
2023/04/26 02:18:06;;;;;;;;;;;;;;;9.28;71.08;101456.25;7361463;19;20003;-63
2023/04/26 02:20:33;;;;;;;;;;;;;;;9.30;70.33;101456.94;7357990;19;19944;-67
2023/04/26 02:23:00;;;;;;;;;;;;;;;9.28;70.77;101460.66;7356999;19;19939;-63
2023/04/26 02:25:27;;;;;;;;;;;;;;;9.29;70.67;101451.81;7350435;19;19935;-63
2023/04/26 02:27:54;;;;;;;;;;;;;;;9.29;71.47;101450.03;7359862;19;20337;-64
2023/04/26 02:30:21;;;;;;;;;;;;;;;9.26;71.06;101450.28;7356318;19;20559;-63
2023/04/26 02:32:48;;;;;;;;;;;;;;;9.29;70.70;101446.56;7358699;19;19949;-63
2023/04/26 02:35:15;;;;;;;;;;;;;;;9.27;69.89;101445.84;7356632;19;21761;-63
2023/04/26 02:37:42;;;;;;;;;;;;;;;9.28;69.82;101443.13;7354692;19;19959;-64
2023/04/26 02:40:09;;;;;;;;;;;;;;;9.29;70.61;101447.41;7358490;19;20506;-64
2023/04/26 02:42:36;;;;;;;;;;;;;;;9.29;70.43;101436.06;7360289;19;20288;-64
2023/04/26 02:45:04;;;;;;;;;;;;;;;9.31;70.78;101431.50;7352645;19;19918;-65
2023/04/26 02:47:30;;;;;;;;;;;;;;;9.31;70.74;101444.63;7352404;19;20349;-64
2023/04/26 02:49:57;;;;;;;;;;;;;;;9.33;70.87;101437.47;7357043;19;19944;-65
2023/04/26 02:52:27;;;;;;;;;;;;;;;9.35;70.49;101451.28;7357532;19;20376;-64
2023/04/26 02:54:54;;;;;;;;;;;;;;;9.32;70.25;101436.63;7352783;19;19926;-64
2023/04/26 02:57:21;;;;;;;;;;;;;;;9.31;69.91;101436.75;7355078;19;20479;-63
2023/04/26 02:59:48;;;;;;;;;;;;;;;9.33;70.46;101443.56;7354564;19;19915;-64
2023/04/26 03:02:14;;;;;;;;;;;;;;;9.36;70.37;101445.06;7357818;19;19923;-65
2023/04/26 03:04:42;;;;;;;;;;;;;;;9.36;70.75;101437.19;7355844;19;19922;-65
2023/04/26 03:07:08;;;;;;;;;;;;;;;9.33;70.06;101432.22;7354563;19;19923;-64
2023/04/26 03:09:37;;;;;;;;;;;;;;;9.32;70.15;101439.25;7357918;19;19922;-64
2023/04/26 03:12:05;;;;;;;;;;;;;;;9.33;70.54;101440.09;7355801;19;19927;-64
2023/04/26 03:14:32;;;;;;;;;;;;;;;9.34;70.41;101439.13;7352297;19;20047;-64
2023/04/26 03:16:59;;;;;;;;;;;;;;;9.34;71.10;101434.72;7359289;19;19922;-65
2023/04/26 03:19:27;;;;;;;;;;;;;;;9.34;70.91;101423.38;7359099;19;19914;-66
2023/04/26 03:21:54;;;;;;;;;;;;;;;9.30;70.03;101428.03;7350458;19;19938;-64
2023/04/26 03:24:21;;;;;;;;;;;;;;;9.30;70.47;101414.06;7357074;19;20416;-64
2023/04/26 03:26:48;;;;;;;;;;;;;;;9.30;70.73;101420.16;7354063;19;19907;-65
2023/04/26 03:29:15;;;;;;;;;;;;;;;9.29;70.25;101425.56;7352027;19;19915;-64
2023/04/26 03:31:43;;;;;;;;;;;;;;;9.29;70.09;101425.56;7357109;19;19939;-64
2023/04/26 03:34:10;;;;;;;;;;;;;;;9.27;70.12;101423.06;7355703;19;19943;-64
2023/04/26 03:36:37;;;;;;;;;;;;;;;9.28;71.24;101426.53;7355160;19;20459;-65
2023/04/26 03:39:05;;;;;;;;;;;;;;;9.30;70.82;101424.59;7355900;19;19918;-64
2023/04/26 03:41:35;;;;;;;;;;;;;;;9.30;71.07;101422.78;7355686;19;19947;-64
2023/04/26 03:44:02;;;;;;;;;;;;;;;9.30;70.56;101427.22;7353432;19;20487;-64
2023/04/26 03:46:29;;;;;;;;;;;;;;;9.27;70.89;101435.34;7351136;19;19951;-64
2023/04/26 03:48:56;;;;;;;;;;;;;;;9.27;70.94;101424.84;7352146;19;19918;-64
2023/04/26 03:51:23;;;;;;;;;;;;;;;9.26;70.60;101421.38;7357621;19;20015;-65
2023/04/26 03:53:51;;;;;;;;;;;;;;;9.25;70.80;101416.25;7356929;19;19923;-64
2023/04/26 03:56:17;;;;;;;;;;;;;;;9.25;70.99;101413.63;7354205;19;20277;-63
2023/04/26 03:58:45;;;;;;;;;;;;;;;9.25;71.44;101414.47;7354614;19;19922;-64
2023/04/26 04:01:12;;;;;;;;;;;;;;;9.21;70.75;101414.84;7350486;19;19978;-67
2023/04/26 04:03:38;;;;;;;;;;;;;;;9.20;71.12;101410.56;7356153;19;19918;-66
2023/04/26 04:06:07;;;;;;;;;;;;;;;9.16;71.05;101409.16;7351530;19;19922;-65
2023/04/26 04:08:34;;;;;;;;;;;;;;;9.13;70.98;101405.03;7355294;19;19950;-65
2023/04/26 04:11:01;;;;;;;;;;;;;;;9.10;70.84;101404.44;7351531;19;20446;-64
2023/04/26 04:13:28;;;;;;;;;;;;;;;9.08;71.54;101403.75;7355771;19;20996;-64
2023/04/26 04:15:54;;;;;;;;;;;;;;;9.08;71.64;101403.75;7349484;19;19923;-63
2023/04/26 04:18:21;;;;;;;;;;;;;;;9.10;72.43;101394.75;7354730;19;19923;-67
2023/04/26 04:20:48;;;;;;;;;;;;;;;9.10;71.84;101401.81;7350871;19;19929;-64
2023/04/26 04:23:15;;;;;;;;;;;;;;;9.11;72.37;101399.06;7355671;19;19951;-64
2023/04/26 04:25:44;;;;;;;;;;;;;;;9.10;71.59;101394.75;7352482;19;19910;-64
2023/04/26 04:28:11;;;;;;;;;;;;;;;9.10;73.32;101394.75;7353736;19;20305;-64
2023/04/26 04:30:38;;;;;;;;;;;;;;;9.09;73.09;101387.88;7351705;19;19933;-63
2023/04/26 04:33:05;;;;;;;;;;;;;;;9.10;72.74;101381.63;7356060;19;20401;-64
2023/04/26 04:35:32;;;;;;;;;;;;;;;9.09;73.11;101389.66;7350342;19;19918;-63
2023/04/26 04:38:01;;;;;;;;;;;;;;;9.07;72.57;101375.81;7353628;19;19914;-64
2023/04/26 04:40:28;;;;;;;;;;;;;;;9.03;72.63;101377.88;7354653;19;20286;-63
2023/04/26 04:42:55;;;;;;;;;;;;;;;9.04;73.08;101376.09;7352215;19;20023;-63
2023/04/26 04:45:22;;;;;;;;;;;;;;;9.02;72.89;101376.22;7350394;19;19915;-64
2023/04/26 04:47:49;;;;;;;;;;;;;;;9.06;74.39;101377.63;7350794;19;19928;-64
2023/04/26 04:50:16;;;;;;;;;;;;;;;9.06;73.62;101389.91;7352098;19;20677;-64
2023/04/26 04:52:43;;;;;;;;;;;;;;;9.06;73.16;101392.53;7355132;19;20272;-65
2023/04/26 04:55:10;;;;;;;;;;;;;;;9.09;75.32;101390.50;7351917;19;19919;-63
2023/04/26 04:57:37;;;;;;;;;;;;;;;9.11;74.43;101387.72;7352195;19;20635;-63
2023/04/26 05:00:09;;;;;;;;;;;;;;;9.12;74.19;101392.03;7351351;19;19911;-64
2023/04/26 05:02:36;;;;;;;;;;;;;;;9.12;73.59;101389.41;7353486;19;19923;-66
2023/04/26 05:05:03;;;;;;;;;;;;;;;9.09;73.15;101385.25;7352287;19;19939;-63
2023/04/26 05:07:31;;;;;;;;;;;;;;;9.10;73.64;101388.69;7353583;19;19918;-65
2023/04/26 05:09:58;;;;;;;;;;;;;;;9.10;74.42;101384.25;7351143;19;19922;-64
2023/04/26 05:12:25;;;;;;;;;;;;;;;9.12;73.76;101384.97;7352512;19;19918;-65
2023/04/26 05:14:52;;;;;;;;;;;;;;;9.15;73.29;101381.25;7345991;19;20289;-63
2023/04/26 05:17:19;;;;;;;;;;;;;;;9.15;72.66;101381.25;7351797;19;20346;-64
2023/04/26 05:19:47;;;;;;;;;;;;;;;9.15;71.83;101384.72;7353372;19;19926;-65
2023/04/26 05:22:17;;;;;;;;;;;;;;;9.18;73.17;101381.84;7352881;19;20325;-64
2023/04/26 05:24:46;;;;;;;;;;;;;;;9.21;73.00;101378.94;7350135;19;19931;-65
2023/04/26 05:27:13;;;;;;;;;;;;;;;9.28;73.98;101392.38;7350883;19;19922;-64
2023/04/26 05:29:40;;;;;;;;;;;;;;;9.29;73.22;101388.81;7350868;19;19957;-64
2023/04/26 05:32:07;;;;;;;;;;;;;;;9.32;72.86;101388.53;7361516;19;21506;-64
2023/04/26 05:34:35;;;;;;;;;;;;;;;9.34;72.51;101394.50;7358533;19;21330;-63
2023/04/26 05:37:02;;;;;;;;;;;;;;;9.38;72.05;101393.28;7356646;19;20380;-64
2023/04/26 05:39:29;;;;;;;;;;;;;;;9.41;72.44;101393.81;7358756;19;19921;-67
2023/04/26 05:41:56;;;;;;;;;;;;;;;9.44;71.26;101401.47;7364615;19;19929;-64
2023/04/26 05:44:23;;;;;;;;;;;;;;;9.47;70.96;101397.72;7354021;19;20249;-64
2023/04/26 05:46:50;;;;;;;;;;;;;;;9.54;72.97;101400.66;7357010;19;19943;-64
2023/04/26 05:49:17;;;;;;;;;;;;;;;9.58;71.47;101399.44;7354988;19;20335;-65
2023/04/26 05:51:44;;;;;;;;;;;;;;;9.62;71.60;101404.28;7358165;19;19919;-63
2023/04/26 05:54:11;;;;;;;;;;;;;;;9.66;71.75;101403.06;7353281;19;20547;-65
2023/04/26 05:56:38;;;;;;;;;;;;;;;9.73;71.42;101398.94;7360372;19;19944;-64
2023/04/26 05:59:04;;;;;;;;;;;;;;;9.80;71.12;101399.25;7358144;19;19922;-64
2023/04/26 06:01:31;;;;;;;;;;;;;;;9.85;70.22;101395.22;7359020;19;19929;-64
2023/04/26 06:03:58;;;;;;;;;;;;;;;9.93;70.64;101394.56;7357062;19;19933;-64
2023/04/26 06:06:27;;;;;;;;;;;;;;;10.01;69.66;101407.03;7357273;19;20269;-63
2023/04/26 06:08:54;;;;;;;;;;;;;;;10.13;70.91;101406.78;7359098;19;19915;-64
2023/04/26 06:11:21;;;;;;;;;;;;;;;10.23;69.95;101404.22;7359883;19;20567;-64
2023/04/26 06:13:48;;;;;;;;;;;;;;;10.26;67.99;101410.03;7359769;19;19941;-64
2023/04/26 06:16:15;;;;;;;;;;;;;;;10.34;68.50;101413.78;7355379;19;19926;-65
2023/04/26 06:18:43;;;;;;;;;;;;;;;10.37;67.58;101403.81;7356597;19;19970;-68
2023/04/26 06:21:09;;;;;;;;;;;;;;;10.42;67.52;101403.38;7358824;19;19922;-65
2023/04/26 06:23:36;;;;;;;;;;;;;;;10.44;68.06;101407.56;7358750;19;20586;-65
2023/04/26 06:26:04;;;;;;;;;;;;;;;10.45;67.46;101403.13;7358048;19;19922;-65
2023/04/26 06:28:31;;;;;;;;;;;;;;;10.45;66.13;101408.41;7358929;19;20803;-65
2023/04/26 06:30:58;;;;;;;;;;;;;;;10.46;65.96;101405.63;7357799;19;20282;-64
2023/04/26 06:33:26;;;;;;;;;;;;;;;10.46;65.53;101404.81;7358355;19;20005;-64
2023/04/26 06:35:53;;;;;;;;;;;;;;;10.42;64.08;101404.22;7354912;19;19919;-64
2023/04/26 06:38:20;;;;;;;;;;;;;;;10.43;64.81;101400.63;7356088;19;20601;-65
2023/04/26 06:40:47;;;;;;;;;;;;;;;10.43;64.19;101403.25;7356903;19;19927;-65
2023/04/26 06:43:14;;;;;;;;;;;;;;;10.38;62.98;101408.09;7355359;19;19921;-63
2023/04/26 06:45:42;;;;;;;;;;;;;;;10.38;63.45;101405.47;7350501;19;19919;-64
2023/04/26 06:48:09;;;;;;;;;;;;;;;10.42;64.13;101409.47;7353702;19;19919;-65
2023/04/26 06:50:38;;;;;;;;;;;;;;;10.45;63.03;101411.88;7353290;19;19974;-65
2023/04/26 06:53:07;;;;;;;;;;;;;;;10.51;62.67;101405.22;7358573;19;19923;-64
2023/04/26 06:55:34;;;;;;;;;;;;;;;10.62;62.42;101400.63;7355161;19;19918;-65
2023/04/26 06:58:01;;;;;;;;;;;;;;;10.79;62.11;101400.91;7356132;19;19929;-64
2023/04/26 07:00:29;;;;;;;;;;;;;;;11.01;62.06;101403.25;7355559;19;19915;-66
2023/04/26 07:02:56;;;;;;;;;;;;;;;11.29;61.72;101399.69;7356405;19;19919;-64
2023/04/26 07:05:24;;;;;;;;;;;;;;;11.47;60.45;101408.53;7353950;19;19923;-65
2023/04/26 07:07:51;;;;;;;;;;;;;;;11.54;58.89;101412.22;7356585;19;19925;-65
2023/04/26 07:10:19;;;;;;;;;;;;;;;11.58;59.18;101410.97;7357254;19;19930;-64
2023/04/26 07:12:47;;;;;;;;;;;;;;;11.55;57.97;101407.78;7359503;19;19929;-63
2023/04/26 07:15:14;;;;;;;;;;;;;;;11.51;59.00;101399.34;7351997;19;19906;-64
2023/04/26 07:17:42;;;;;;;;;;;;;;;11.47;58.70;101403.25;7354779;19;19926;-65
2023/04/26 07:20:09;;;;;;;;;;;;;;;11.41;59.40;101406.47;7356423;19;20309;-65
2023/04/26 07:22:37;;;;;;;;;;;;;;;11.34;57.93;101400.09;7356240;19;19919;-64
2023/04/26 07:25:05;;;;;;;;;;;;;;;11.32;60.89;101401.22;7352937;19;20027;-64
2023/04/26 07:27:32;;;;;;;;;;;;;;;11.25;59.66;101398.31;7354841;19;20420;-64
2023/04/26 07:30:04;;;;;;;;;;;;;;;11.17;59.13;101400.84;7354947;19;19949;-65
2023/04/26 07:32:35;;;;;;;;;;;;;;;11.07;59.20;101398.22;7356209;19;19923;-65
2023/04/26 07:35:06;;;;;;;;;;;;;;;11.01;58.08;101395.34;7354296;19;20586;-64
2023/04/26 07:37:33;;;;;;;;;;;;;;;10.95;58.00;101386.19;7356587;19;19974;-64
2023/04/26 07:40:04;;;;;;;;;;;;;;;10.96;58.85;101389.66;7359286;19;20309;-65
2023/04/26 07:42:34;;;;;;;;;;;;;;;10.97;58.93;101392.13;7355601;19;20623;-64
2023/04/26 07:45:02;;;;;;;;;;;;;;;11.00;59.70;101394.50;7348686;19;19929;-64
2023/04/26 07:47:30;;;;;;;;;;;;;;;11.02;58.31;101387.28;7355538;19;21645;-64
2023/04/26 07:49:59;;;;;;;;;;;;;;;11.03;57.89;101394.22;7354789;19;20348;-64
2023/04/26 07:52:30;;;;;;;;;;;;;;;11.11;59.06;101401.41;7352872;19;20621;-63
2023/04/26 07:54:59;;;;;;;;;;;;;;;11.07;57.36;101398.22;7346670;19;19927;-64
2023/04/26 07:57:26;;;;;;;;;;;;;;;11.10;58.80;101399.75;7355080;19;19919;-63
2023/04/26 07:59:54;;;;;;;;;;;;;;;11.11;58.65;101396.97;7351296;19;19929;-64
2023/04/26 08:02:25;;;;;;;;;;;;;;;11.14;57.35;101394.06;7353905;19;19927;-63
2023/04/26 08:05:10;;;;;;;;;;;;;;;11.15;56.44;101405.41;7352920;19;20477;-63
2023/04/26 08:07:37;;;;;;;;;;;;;;;11.17;57.46;101406.13;7353690;19;19930;-66
2023/04/26 08:10:08;;;;;;;;;;;;;;;11.17;56.81;101407.94;7355259;19;19918;-65
2023/04/26 08:12:36;;;;;;;;;;;;;;;11.15;56.56;101410.69;7355814;19;19919;-64
2023/04/26 08:15:09;;;;;;;;;;;;;;;11.14;56.38;101412.50;7352080;19;19911;-64
2023/04/26 08:17:37;;;;;;;;;;;;;;;11.13;56.17;101416.09;7353807;19;19982;-64
2023/04/26 08:20:08;;;;;;;;;;;;;;;11.11;55.74;101418.06;7355476;19;19919;-65
2023/04/26 08:22:44;;;;;;;;;;;;;;;11.11;55.92;101419.84;7354110;19;19919;-64
2023/04/26 08:25:11;;;;;;;;;;;;;;;11.15;58.27;101421.22;7356342;19;19918;-64
2023/04/26 08:27:48;;;;;;;;;;;;;;;11.13;57.24;101421.34;7359400;19;19926;-63
2023/04/26 08:30:31;;;;;;;;;;;;;;;11.12;56.04;101421.53;7354846;19;19918;-65
2023/04/26 08:33:00;;;;;;;;;;;;;;;11.14;55.46;101416.94;7357605;19;19942;-65
2023/04/26 08:35:27;;;;;;;;;;;;;;;11.15;55.29;101413.31;7355336;19;19923;-66
2023/04/26 08:37:55;;;;;;;;;;;;;;;11.18;56.09;101412.19;7352539;19;19926;-65
2023/04/26 08:40:23;;;;;;;;;;;;;;;11.18;54.90;101409.56;7355768;19;19926;-66
2023/04/26 08:42:52;;;;;;;;;;;;;;;11.21;55.20;101411.94;7354137;19;19922;-64
2023/04/26 08:45:20;;;;;;;;;;;;;;;11.24;55.31;101411.63;7349686;19;20246;-64
2023/04/26 08:47:48;;;;;;;;;;;;;;;11.24;54.86;101409.00;7350899;19;20080;-65
2023/04/26 08:50:17;;;;;;;;;;;;;;;11.26;53.74;101415.81;7352302;19;20274;-62
2023/04/26 08:52:46;;;;;;;;;;;;;;;11.29;54.56;101412.03;7349873;19;19915;-64
2023/04/26 08:55:16;;;;;;;;;;;;;;;11.28;53.57;101416.47;7351392;19;19922;-64
2023/04/26 08:57:45;;;;;;;;;;;;;;;11.25;53.69;101413.31;7352477;19;19952;-65
2023/04/26 09:00:14;;;;;;;;;;;;;;;11.22;53.52;101419.69;7349315;19;19998;-64
2023/04/26 09:02:46;;;;;;;;;;;;;;;11.19;52.47;101406.78;7354164;19;20761;-65
2023/04/26 09:05:13;;;;;;;;;;;;;;;11.11;52.36;101406.69;7351465;19;19925;-63
2023/04/26 09:07:42;;;;;;;;;;;;;;;11.08;52.97;101406.94;7350072;19;19919;-66
2023/04/26 09:10:10;;;;;;;;;;;;;;;11.06;53.12;101408.91;7353681;19;20989;-63
2023/04/26 09:12:37;;;;;;;;;;;;;;;11.05;53.52;101410.72;7355137;19;19918;-63
2023/04/26 09:15:06;;;;;;;;;;;;;;;11.06;53.50;101408.91;7348370;19;19982;-66
2023/04/26 09:17:35;;;;;;;;;;;;;;;11.05;52.87;101421.25;7351080;19;20953;-64
2023/04/26 09:20:13;;;;;;;;;;;;;;;11.07;53.30;101418.47;7355088;19;19930;-63
2023/04/26 09:22:40;;;;;;;;;;;;;;;11.06;51.69;101419.44;7353716;19;19922;-65
2023/04/26 09:25:07;;;;;;;;;;;;;;;11.04;52.11;101416.94;7350090;19;19922;-66
2023/04/26 09:27:37;;;;;;;;;;;;;;;11.05;52.34;101417.78;7350073;19;19915;-64
2023/04/26 09:30:04;;;;;;;;;;;;;;;11.07;52.20;101418.47;7351496;19;19922;-64
2023/04/26 09:32:42;;;;;;;;;;;;;;;11.06;52.53;101425.53;7352756;19;20597;-64
2023/04/26 09:35:19;;;;;;;;;;;;;;;11.10;53.18;101418.19;7318673;19;19929;-64
2023/04/26 09:37:58;;;;;;;;;;;;;;;11.07;52.41;101421.91;7351223;19;19926;-65
2023/04/26 09:40:34;;;;;;;;;;;;;;;11.04;51.73;101424.00;7353680;19;19927;-64
2023/04/26 09:43:02;;;;;;;;;;;;;;;11.03;52.28;101422.34;7351395;19;20165;-65
2023/04/26 09:45:30;;;;;;;;;;;;;;;10.99;52.08;101428.88;7347145;19;19929;-65
2023/04/26 09:48:06;;;;;;;;;;;;;;;11.00;52.72;101430.53;7350158;19;20355;-65
2023/04/26 09:50:34;;;;;;;;;;;;;;;11.01;53.42;101422.50;7353477;19;20249;-64
2023/04/26 09:53:01;;;;;;;;;;;;;;;11.03;52.50;101428.44;7349639;19;19918;-65
2023/04/26 09:55:29;;;;;;;;;;;;;;;11.07;53.00;101424.56;7346262;19;19915;-64
2023/04/26 09:58:09;;;;;;;;;;;;;;;11.10;53.32;101418.19;7349540;19;20424;-66
2023/04/26 10:00:38;;;;;;;;;;;;;;;11.11;52.99;101420.69;7347113;19;20805;-63
2023/04/26 10:03:06;;;;;;;;;;;;;;;11.14;51.55;101417.75;7352445;19;19922;-65
2023/04/26 10:05:35;;;;;;;;;;;;;;;11.19;54.19;101408.59;7348161;19;19914;-64
2023/04/26 10:08:02;;;;;;;;;;;;;;;11.23;52.34;101416.06;7352245;19;19922;-64
2023/04/26 10:10:30;;;;;;;;;;;;;;;11.27;53.12;101409.56;7352036;19;19933;-64
2023/04/26 10:12:57;;;;;;;;;;;;;;;11.31;53.53;101412.75;7350309;19;19989;-63
2023/04/26 10:15:25;;;;;;;;;;;;;;;11.32;53.21;101409.97;7349711;19;20405;-64
2023/04/26 10:17:52;;;;;;;;;;;;;;;11.32;52.31;101417.88;7353001;19;19922;-69
2023/04/26 10:20:20;;;;;;;;;;;;;;;11.33;52.08;101410.78;7358430;19;19915;-64
2023/04/26 10:22:51;;;;;;;;;;;;;;;11.30;52.38;101416.34;7358842;19;20317;-64
2023/04/26 10:25:18;;;;;;;;;;;;;;;11.32;52.48;101409.97;7357651;19;20019;-64
2023/04/26 10:27:46;;;;;;;;;;;;;;;11.31;53.68;101412.75;7355370;19;19993;-64
2023/04/26 10:30:24;;;;;;;;;;;;;;;11.30;52.89;101411.06;7352604;19;19919;-64
2023/04/26 10:32:55;;;;;;;;;;;;;;;11.29;53.46;101404.97;7358984;19;19929;-66
2023/04/26 10:35:24;;;;;;;;;;;;;;;11.33;52.38;101406.34;7355163;19;19923;-65
2023/04/26 10:37:59;;;;;;;;;;;;;;;11.39;53.03;101405.75;7356979;19;20035;-65
2023/04/26 10:40:28;;;;;;;;;;;;;;;11.40;54.36;101406.59;7357964;19;19942;-68
2023/04/26 10:43:04;;;;;;;;;;;;;;;11.39;51.89;101404.94;7357480;19;19919;-64
2023/04/26 10:45:32;;;;;;;;;;;;;;;11.36;52.56;101399.97;7351315;19;20700;-65
2023/04/26 10:48:08;;;;;;;;;;;;;;;11.35;51.88;101404.41;7357800;19;20207;-65
2023/04/26 10:50:55;;;;;;;;;;;;;;;11.36;53.16;101395.53;7358560;19;20408;-66
2023/04/26 10:53:23;;;;;;;;;;;;;;;11.40;52.96;101402.16;7355115;19;19919;-64
2023/04/26 10:55:51;;;;;;;;;;;;;;;11.45;53.05;101393.81;7350967;19;20323;-65
2023/04/26 10:58:26;;;;;;;;;;;;;;;11.48;51.87;101390.88;7353477;19;19939;-65
2023/04/26 11:01:02;;;;;;;;;;;;;;;11.52;53.25;101397.56;7353458;19;19956;-63
2023/04/26 11:03:30;;;;;;;;;;;;;;;11.57;52.51;101390.88;7355491;19;19943;-64
2023/04/26 11:05:58;;;;;;;;;;;;;;;11.61;52.22;101382.66;7356673;19;19919;-64
2023/04/26 11:08:27;;;;;;;;;;;;;;;11.69;52.01;101380.94;7350910;19;19943;-66
2023/04/26 11:10:58;;;;;;;;;;;;;;;11.79;52.34;101386.19;7356409;19;19994;-65
2023/04/26 11:13:26;;;;;;;;;;;;;;;11.83;51.06;101371.78;7363583;19;19932;-69
2023/04/26 11:15:58;;;;;;;;;;;;;;;11.89;51.32;101379.91;7350737;19;20237;-64
2023/04/26 11:18:27;;;;;;;;;;;;;;;11.95;51.24;101376.69;7357126;19;19915;-64
2023/04/26 11:20:55;;;;;;;;;;;;;;;12.02;50.55;101374.28;7357466;19;19915;-65
2023/04/26 11:23:22;;;;;;;;;;;;;;;12.08;50.60;101380.78;7357466;19;19911;-63
2023/04/26 11:25:50;;;;;;;;;;;;;;;12.17;50.03;101379.88;7355640;19;20111;-65
2023/04/26 11:28:18;;;;;;;;;;;;;;;12.19;49.40;101370.81;7354919;19;20294;-64
2023/04/26 11:30:45;;;;;;;;;;;;;;;12.32;50.62;101379.22;7355599;19;20483;-64
2023/04/26 11:33:17;;;;;;;;;;;;;;;12.39;49.20;101380.25;7353510;19;20341;-65
2023/04/26 11:35:46;;;;;;;;;;;;;;;12.57;48.99;101368.88;7355808;19;19953;-65
2023/04/26 11:38:14;;;;;;;;;;;;;;;12.67;48.82;101362.53;7357341;19;19910;-64
2023/04/26 11:40:41;;;;;;;;;;;;;;;12.84;49.65;101366.97;7356034;19;19925;-65
2023/04/26 11:43:10;;;;;;;;;;;;;;;13.01;48.93;101361.75;7355087;19;19925;-64
2023/04/26 11:45:37;;;;;;;;;;;;;;;13.15;48.09;101366.53;7352148;19;19915;-65
2023/04/26 11:48:06;;;;;;;;;;;;;;;13.18;47.72;101364.41;7354410;19;20337;-65
2023/04/26 11:50:35;;;;;;;;;;;;;;;13.27;48.17;101352.88;7356369;19;20055;-63
2023/04/26 11:53:03;;;;;;;;;;;;;;;13.39;47.14;101363.19;7355700;19;19927;-65
2023/04/26 11:55:32;;;;;;;;;;;;;;;13.49;47.57;101358.59;7348775;19;19918;-64
2023/04/26 11:58:00;;;;;;;;;;;;;;;13.55;46.16;101363.25;7356165;19;19925;-64
2023/04/26 12:00:27;;;;;;;;;;;;;;;13.60;46.18;101360.97;7356074;19;20380;-65
2023/04/26 12:02:56;;;;;;;;;;;;;;;13.67;46.14;101367.25;7357266;19;20514;-65
2023/04/26 12:05:29;;;;;;;;;;;;;;;13.75;45.56;101367.31;7353028;19;21287;-65
2023/04/26 12:07:59;;;;;;;;;;;;;;;13.79;45.39;101373.09;7353633;19;19919;-68
2023/04/26 12:10:28;;;;;;;;;;;;;;;13.82;45.01;101370.94;7354789;19;19998;-64
2023/04/26 12:12:57;;;;;;;;;;;;;;;13.80;44.52;101358.91;7357715;19;20484;-64
2023/04/26 12:15:28;;;;;;;;;;;;;;;13.86;45.06;101363.53;7348479;19;20485;-65
2023/04/26 12:18:00;;;;;;;;;;;;;;;13.81;45.38;101348.16;7351961;19;20002;-65
2023/04/26 12:20:28;;;;;;;;;;;;;;;13.81;44.28;101357.91;7352888;19;19919;-65
2023/04/26 12:22:57;;;;;;;;;;;;;;;13.83;45.13;101353.28;7353201;19;19919;-64
2023/04/26 12:25:24;;;;;;;;;;;;;;;13.85;44.60;101340.72;7349407;19;19970;-64
2023/04/26 12:27:51;;;;;;;;;;;;;;;13.91;43.99;101345.38;7354565;19;19971;-65
2023/04/26 12:30:20;;;;;;;;;;;;;;;13.89;44.14;101352.63;7353668;19;20566;-64
2023/04/26 12:32:47;;;;;;;;;;;;;;;13.91;44.42;101348.03;7352446;19;19919;-64
2023/04/26 12:35:15;;;;;;;;;;;;;;;13.96;44.45;101348.38;7350952;19;19921;-65
2023/04/26 12:37:42;;;;;;;;;;;;;;;14.01;44.28;101340.75;7353204;19;21845;-65
2023/04/26 12:40:11;;;;;;;;;;;;;;;14.02;43.68;101350.34;7352637;19;20788;-64
2023/04/26 12:42:47;;;;;;;;;;;;;;;14.04;44.28;101343.91;7352551;19;20256;-65
2023/04/26 12:45:17;;;;;;;;;;;;;;;13.98;44.29;101349.84;7348348;19;19919;-64